Time;durP1;ratioP1;P1;durP2;ratioP2;P2;SDS_P1;SDS_P2;PMS_P1;PMS_P2;Temp;Humidity;BMP_temperature;BMP_pressure;BME280_temperature;BME280_humidity;BME280_pressure;Samples;Min_cycle;Max_cycle;Signal;HPM_P1;HPM_P2
2022/05/29 00:00:12;;;;;;;10.77;5.85;;;;;;;17.10;63.13;100889.59;4903855;29;20042;-92
2022/05/29 00:02:38;;;;;;;15.13;6.32;;;;;;;17.16;63.39;100901.41;4919435;29;20034;-91
2022/05/29 00:05:05;;;;;;;10.15;6.18;;;;;;;17.29;62.94;100923.09;4919176;29;20070;-91
2022/05/29 00:07:30;;;;;;;9.13;6.03;;;;;;;17.25;63.48;100905.97;4903499;29;20038;-92
2022/05/29 00:09:56;;;;;;;11.23;5.85;;;;;;;17.26;63.15;100923.31;4903405;29;20035;-92
2022/05/29 00:12:22;;;;;;;12.20;5.63;;;;;;;17.08;63.13;100908.97;4919433;29;20032;-91
2022/05/29 00:14:48;;;;;;;13.05;6.20;;;;;;;17.01;63.50;100907.72;4903499;29;20453;-92
2022/05/29 00:17:14;;;;;;;10.05;6.47;;;;;;;16.99;63.77;100915.69;4903491;29;20036;-93
2022/05/29 00:19:39;;;;;;;11.70;6.65;;;;;;;16.91;63.51;100908.41;4918062;29;20024;-92
2022/05/29 00:22:05;;;;;;;10.50;6.40;;;;;;;16.84;64.25;100904.53;4918872;29;20043;-92
2022/05/29 00:24:31;;;;;;;9.70;6.32;;;;;;;16.77;63.48;100894.63;4919098;29;20374;-92
2022/05/29 00:26:56;;;;;;;9.65;6.40;;;;;;;16.72;64.57;100892.34;4903023;29;20115;-92
2022/05/29 00:29:22;;;;;;;10.10;6.57;;;;;;;16.66;64.07;100891.91;4903366;29;20040;-92
2022/05/29 00:31:47;;;;;;;12.18;6.50;;;;;;;16.73;64.05;100891.41;4903268;29;20437;-92
2022/05/29 00:34:13;;;;;;;13.73;7.22;;;;;;;16.74;64.10;100890.47;4902753;29;20073;-93
2022/05/29 00:36:39;;;;;;;13.00;6.90;;;;;;;16.66;64.05;100865.78;4902978;29;20082;-92
2022/05/29 00:39:07;;;;;;;11.85;6.80;;;;;;;16.69;64.89;100861.19;4903012;29;20039;-92
2022/05/29 00:41:34;;;;;;;14.35;7.03;;;;;;;16.63;64.40;100849.38;4902846;29;20024;-92
2022/05/29 00:44:25;;;;;;;11.55;7.05;;;;;;;16.59;64.84;100834.84;4903030;29;20027;-92
2022/05/29 00:46:56;;;;;;;15.73;7.75;;;;;;;16.55;64.67;100837.81;4903991;29;20027;-92
2022/05/29 00:49:27;;;;;;;14.52;7.80;;;;;;;16.45;65.29;100831.56;4918970;29;20110;-91
2022/05/29 00:51:59;;;;;;;13.07;7.60;;;;;;;16.48;65.54;100837.41;4935138;29;20501;-91
2022/05/29 00:54:25;;;;;;;12.63;7.30;;;;;;;16.47;66.14;100827.06;4918523;29;20039;-92
2022/05/29 00:56:51;;;;;;;12.70;7.78;;;;;;;16.45;65.90;100828.97;4918609;29;20028;-92
2022/05/29 00:59:20;;;;;;;13.50;7.68;;;;;;;16.33;65.95;100818.44;4918579;29;20481;-91
2022/05/29 01:01:45;;;;;;;17.27;8.02;;;;;;;16.30;66.20;100818.63;4902271;29;20046;-92
2022/05/29 01:04:11;;;;;;;11.55;7.10;;;;;;;16.31;67.28;100829.91;4918357;29;20032;-92
2022/05/29 01:06:36;;;;;;;11.65;7.05;;;;;;;16.44;66.78;100832.50;4918304;29;20084;-91
2022/05/29 01:09:02;;;;;;;16.30;7.47;;;;;;;16.43;66.27;100838.69;4902365;29;20031;-91
2022/05/29 01:11:43;;;;;;;10.68;7.00;;;;;;;16.47;65.85;100848.78;4918245;29;20028;-90
2022/05/29 01:14:13;;;;;;;13.88;7.05;;;;;;;16.46;66.21;100848.91;4934124;29;20032;-93
2022/05/29 01:17:00;;;;;;;12.60;7.55;;;;;;;16.45;65.71;100847.22;4933780;29;20493;-92
2022/05/29 01:19:36;;;;;;;14.65;7.28;;;;;;;16.38;65.39;100828.53;4949582;29;20039;-92
2022/05/29 01:22:21;;;;;;;17.15;7.45;;;;;;;16.35;66.23;100819.16;4917896;29;20066;-92
2022/05/29 01:25:00;;;;;;;13.10;8.13;;;;;;;16.27;65.98;100818.84;4913636;29;20043;-91
2022/05/29 01:27:51;;;;;;;13.13;7.57;;;;;;;16.26;65.44;100814.56;4933734;29;20027;-92
2022/05/29 01:30:19;;;;;;;14.82;7.97;;;;;;;16.03;65.82;100784.03;4933554;29;20032;-93
2022/05/29 01:32:50;;;;;;;17.33;8.30;;;;;;;16.25;66.02;100799.03;4917810;29;20023;-92
2022/05/29 01:35:23;;;;;;;11.33;7.83;;;;;;;16.19;65.17;100796.81;4933743;29;20023;-92
2022/05/29 01:38:11;;;;;;;12.32;8.32;;;;;;;16.15;65.40;100793.59;4902861;29;20050;-92
2022/05/29 01:40:44;;;;;;;12.43;8.32;;;;;;;15.97;65.71;100789.66;4902357;29;20055;-93
2022/05/29 01:43:29;;;;;;;12.82;8.50;;;;;;;16.01;65.24;100784.09;4918226;29;20038;-92
2022/05/29 01:46:20;;;;;;;15.82;7.80;;;;;;;16.14;65.04;100788.50;4918783;29;20039;-91
2022/05/29 01:49:05;;;;;;;13.07;7.97;;;;;;;16.07;65.02;100785.47;4904475;29;20028;-93
2022/05/29 01:51:51;;;;;;;12.82;8.23;;;;;;;16.16;64.51;100805.72;4918393;29;20047;-91
2022/05/29 01:54:39;;;;;;;15.52;8.32;;;;;;;16.11;64.98;100810.41;4932618;29;20066;-92
2022/05/29 01:57:13;;;;;;;16.33;8.73;;;;;;;16.12;64.85;100814.66;4933410;29;20035;-92
2022/05/29 02:00:06;;;;;;;12.27;8.75;;;;;;;16.05;64.12;100797.78;4917367;29;20028;-90
2022/05/29 02:02:41;;;;;;;12.68;8.35;;;;;;;15.93;64.51;100772.56;4917386;29;20035;-91
2022/05/29 02:05:16;;;;;;;13.35;9.15;;;;;;;16.16;63.52;100797.88;4902041;29;20126;-91
2022/05/29 02:07:49;;;;;;;13.20;9.35;;;;;;;15.90;64.35;100751.88;4918108;29;20498;-91
2022/05/29 02:10:39;;;;;;;14.63;8.98;;;;;;;16.06;64.53;100779.41;4918494;29;20035;-92
2022/05/29 02:13:33;;;;;;;12.63;8.75;;;;;;;16.02;63.65;100771.88;4934626;29;20524;-92
2022/05/29 02:16:03;;;;;;;15.45;9.20;;;;;;;15.97;63.84;100769.63;4930145;29;20043;-92
2022/05/29 02:18:53;;;;;;;14.38;9.02;;;;;;;15.96;63.55;100774.94;4917479;29;20051;-92
2022/05/29 02:21:47;;;;;;;13.60;8.88;;;;;;;15.82;63.83;100762.00;4919232;29;20123;-92
2022/05/29 02:24:14;;;;;;;14.10;9.57;;;;;;;15.46;64.71;100714.00;4919625;29;20024;-92
2022/05/29 02:26:48;;;;;;;13.98;9.00;;;;;;;15.75;63.76;100754.59;4917684;29;20039;-92
2022/05/29 02:29:14;;;;;;;13.77;9.18;;;;;;;15.76;64.12;100768.47;4917497;29;20032;-92
2022/05/29 02:31:47;;;;;;;14.20;9.18;;;;;;;15.68;64.59;100769.00;4901743;29;20556;-91
2022/05/29 02:34:33;;;;;;;14.45;8.38;;;;;;;15.65;64.00;100795.28;4933322;29;20028;-92
2022/05/29 02:37:22;;;;;;;14.98;8.73;;;;;;;15.58;63.84;100793.16;4917376;29;20065;-92
2022/05/29 02:39:54;;;;;;;14.85;9.10;;;;;;;15.67;64.11;100788.19;4904222;29;20413;-92
2022/05/29 02:42:28;;;;;;;14.00;9.00;;;;;;;15.58;64.15;100782.72;4917335;29;20070;-93
2022/05/29 02:45:16;;;;;;;12.95;8.25;;;;;;;15.35;64.29;100758.22;4936038;29;20035;-92
2022/05/29 02:47:47;;;;;;;13.13;8.25;;;;;;;15.57;63.78;100792.31;4937098;29;20039;-94
2022/05/29 02:50:34;;;;;;;13.02;8.43;;;;;;;15.60;64.09;100781.72;4920691;29;20031;-91
2022/05/29 02:53:02;;;;;;;12.38;8.15;;;;;;;15.55;63.77;100770.75;4920366;29;20102;-93
2022/05/29 02:55:28;;;;;;;12.52;8.10;;;;;;;15.55;63.73;100767.31;4905000;29;20038;-92
2022/05/29 02:57:56;;;;;;;13.35;8.15;;;;;;;15.45;64.88;100772.28;4920214;29;20035;-92
2022/05/29 03:00:22;;;;;;;13.10;8.55;;;;;;;15.62;64.65;100800.69;4921778;29;20086;-91
2022/05/29 03:03:03;;;;;;;15.68;8.65;;;;;;;15.68;64.96;100800.28;4905278;29;20036;-93
2022/05/29 03:05:46;;;;;;;16.55;9.38;;;;;;;15.68;64.83;100809.88;4905521;29;20444;-94
2022/05/29 03:08:46;;;;;;;15.55;10.02;;;;;;;15.66;64.31;100791.75;4921438;29;20110;-92
2022/05/29 03:11:15;;;;;;;16.23;10.43;;;;;;;15.69;64.16;100788.09;4920498;29;20038;-92
2022/05/29 03:13:49;;;;;;;16.50;10.20;;;;;;;15.60;63.97;100771.28;4935841;29;20057;-92
2022/05/29 03:16:54;;;;;;;20.98;10.20;;;;;;;15.69;64.05;100775.03;4935708;29;20027;-94
2022/05/29 03:19:50;;;;;;;16.63;11.02;;;;;;;15.63;64.82;100765.88;4914168;29;20050;-92
2022/05/29 03:22:37;;;;;;;19.25;10.80;;;;;;;15.67;64.58;100763.88;4935514;29;20035;-92
2022/05/29 03:25:10;;;;;;;19.25;10.60;;;;;;;15.61;64.25;100752.09;4935942;29;20040;-92
2022/05/29 03:27:45;;;;;;;19.95;10.25;;;;;;;15.64;63.70;100741.47;4935760;29;20496;-92
2022/05/29 03:30:33;;;;;;;21.63;10.35;;;;;;;15.66;63.50;100744.78;4935598;29;20048;-93
2022/05/29 03:33:00;;;;;;;18.10;9.90;;;;;;;15.47;63.25;100726.09;4935866;29;20036;-92
2022/05/29 03:35:25;;;;;;;20.38;11.95;;;;;;;15.56;63.61;100741.13;4904183;29;20055;-92
2022/05/29 03:37:51;;;;;;;20.83;11.25;;;;;;;15.38;63.64;100729.31;4935658;29;20114;-92
2022/05/29 03:40:17;;;;;;;18.88;10.25;;;;;;;15.36;64.10;100749.44;4935720;29;20028;-93
2022/05/29 03:42:42;;;;;;;20.83;10.35;;;;;;;15.28;64.29;100760.38;4919462;29;20031;-91
2022/05/29 03:45:09;;;;;;;21.05;10.75;;;;;;;15.24;65.31;100768.47;4919591;29;20031;-92
2022/05/29 03:47:38;;;;;;;21.98;10.85;;;;;;;15.19;64.65;100785.28;4919669;29;20032;-92
2022/05/29 03:50:05;;;;;;;18.05;10.50;;;;;;;15.05;65.12;100785.34;4935535;29;20067;-92
2022/05/29 03:52:31;;;;;;;19.05;10.30;;;;;;;15.00;65.66;100776.97;4919033;29;20090;-92
2022/05/29 03:54:58;;;;;;;19.27;10.98;;;;;;;15.00;65.23;100769.16;4919678;29;20143;-91
2022/05/29 03:57:23;;;;;;;18.35;11.10;;;;;;;14.99;65.57;100766.66;4919259;29;20032;-92
2022/05/29 03:59:48;;;;;;;21.50;12.10;;;;;;;14.95;65.29;100747.81;4935176;29;20027;-92
2022/05/29 04:02:14;;;;;;;19.75;10.43;;;;;;;14.99;65.81;100751.03;4919364;29;20502;-92
2022/05/29 04:04:39;;;;;;;21.23;11.07;;;;;;;15.04;65.45;100746.34;4935195;29;20027;-92
2022/05/29 04:07:05;;;;;;;19.77;10.85;;;;;;;15.07;65.27;100728.75;4935199;29;20039;-92
2022/05/29 04:12:15;;;;;;;19.15;10.60;;;;;;;15.09;65.82;100721.66;4935132;29;20090;-93
2022/05/29 04:14:43;;;;;;;20.23;11.15;;;;;;;15.05;65.63;100709.78;4919149;29;20038;-92
2022/05/29 04:17:09;;;;;;;19.33;10.50;;;;;;;15.06;65.25;100698.44;4935071;29;20036;-93
2022/05/29 04:19:35;;;;;;;15.75;9.98;;;;;;;15.11;64.89;100714.56;4918964;29;20047;-93
2022/05/29 04:22:00;;;;;;;18.08;10.02;;;;;;;15.16;65.24;100699.47;4919149;29;20031;-92
2022/05/29 04:24:26;;;;;;;22.77;10.80;;;;;;;15.14;65.24;100705.72;4934672;29;20561;-93
2022/05/29 04:26:51;;;;;;;17.55;10.75;;;;;;;15.12;65.27;100711.03;4918982;29;20122;-92
2022/05/29 04:29:18;;;;;;;22.45;10.98;;;;;;;15.15;65.36;100734.31;4918854;29;20074;-92
2022/05/29 04:34:27;;;;;;;21.42;10.98;;;;;;;15.36;65.84;100742.47;4934943;29;20080;-92
2022/05/29 04:36:53;;;;;;;20.02;10.82;;;;;;;15.37;65.76;100740.69;4918692;29;20067;-93
2022/05/29 04:39:18;;;;;;;19.23;10.40;;;;;;;15.53;65.85;100732.66;4918556;29;20401;-92
2022/05/29 04:41:44;;;;;;;19.05;10.85;;;;;;;15.65;64.81;100740.53;4918819;29;20060;-93
2022/05/29 04:44:09;;;;;;;19.20;9.68;;;;;;;15.78;63.98;100732.69;4934513;29;20036;-92
2022/05/29 04:46:34;;;;;;;15.23;8.93;;;;;;;15.91;63.12;100727.44;4902838;29;20036;-92
2022/05/29 04:49:00;;;;;;;13.98;8.43;;;;;;;15.91;62.61;100730.06;4903371;29;20035;-92
2022/05/29 04:51:25;;;;;;;14.50;8.10;;;;;;;15.98;62.11;100749.56;4918749;29;20032;-93
2022/05/29 04:53:52;;;;;;;13.02;7.57;;;;;;;16.12;62.64;100759.03;4902568;29;20059;-92
2022/05/29 04:56:18;;;;;;;16.52;7.53;;;;;;;16.10;63.31;100759.16;4918631;29;20062;-92
2022/05/29 04:58:43;;;;;;;10.77;6.80;;;;;;;16.21;62.56;100767.06;4902531;29;20043;-92
2022/05/29 05:01:10;;;;;;;11.60;6.47;;;;;;;16.38;61.73;100772.88;4918413;29;20032;-91
2022/05/29 05:03:35;;;;;;;9.68;6.65;;;;;;;16.34;61.24;100748.78;4902855;29;20058;-92
2022/05/29 05:06:01;;;;;;;11.00;6.68;;;;;;;16.63;60.76;100784.09;4933598;29;20067;-92
2022/05/29 05:08:26;;;;;;;14.75;6.70;;;;;;;16.65;59.38;100770.91;4902209;29;20028;-92
2022/05/29 05:10:52;;;;;;;10.52;6.38;;;;;;;16.87;59.03;100773.66;4902573;29;20042;-94
2022/05/29 05:13:17;;;;;;;10.90;5.60;;;;;;;16.94;57.80;100781.06;4918163;29;20032;-93
2022/05/29 05:15:43;;;;;;;9.45;5.65;;;;;;;16.92;58.21;100779.41;4918288;29;20036;-92
2022/05/29 05:18:08;;;;;;;13.65;5.90;;;;;;;17.01;58.91;100774.44;4902237;29;20036;-92
2022/05/29 05:20:35;;;;;;;10.77;6.28;;;;;;;17.11;59.00;100770.22;4917916;29;20079;-91
2022/05/29 05:23:00;;;;;;;9.60;5.45;;;;;;;17.10;57.96;100771.97;4902302;29;20061;-93
2022/05/29 05:25:26;;;;;;;8.90;5.70;;;;;;;17.15;57.99;100748.13;4902409;29;20028;-92
2022/05/29 05:27:51;;;;;;;9.35;5.05;;;;;;;17.18;57.59;100758.34;4917937;29;20055;-92
2022/05/29 05:30:17;;;;;;;7.75;5.05;;;;;;;17.28;57.11;100764.56;4902319;29;20527;-92
2022/05/29 05:32:42;;;;;;;9.23;5.00;;;;;;;17.35;56.56;100768.38;4917920;29;20036;-91
2022/05/29 05:35:08;;;;;;;9.15;4.88;;;;;;;17.44;56.60;100754.63;4918012;29;20028;-91
2022/05/29 05:37:35;;;;;;;7.93;4.80;;;;;;;17.42;55.98;100759.13;4901829;29;20115;-92
2022/05/29 05:40:02;;;;;;;10.52;5.30;;;;;;;17.35;56.42;100757.91;4918109;29;20059;-91
2022/05/29 05:42:27;;;;;;;10.82;5.35;;;;;;;17.40;56.99;100774.13;4902235;29;20122;-93
2022/05/29 05:44:53;;;;;;;6.78;4.65;;;;;;;17.37;56.25;100763.88;4917783;29;20050;-92
2022/05/29 05:47:22;;;;;;;8.32;4.25;;;;;;;17.53;56.92;100757.50;4901999;29;20409;-91
2022/05/29 05:49:49;;;;;;;10.57;4.43;;;;;;;17.63;56.30;100758.44;4901919;29;20028;-91
2022/05/29 05:52:15;;;;;;;8.50;4.90;;;;;;;17.72;56.32;100757.78;4917418;29;20059;-92
2022/05/29 05:54:40;;;;;;;7.35;5.10;;;;;;;17.80;56.82;100773.75;4902121;29;20489;-91
2022/05/29 05:57:06;;;;;;;6.38;4.20;;;;;;;17.80;56.46;100776.34;4901531;29;20038;-93
2022/05/29 05:59:32;;;;;;;10.02;4.82;;;;;;;17.77;55.49;100771.34;4917863;29;20059;-94
2022/05/29 06:01:58;;;;;;;6.95;4.72;;;;;;;17.91;55.65;100776.34;4901727;29;20028;-92
2022/05/29 06:04:24;;;;;;;9.27;4.65;;;;;;;17.95;55.48;100771.69;4917612;29;20031;-93
2022/05/29 06:06:49;;;;;;;7.88;4.68;;;;;;;17.95;55.56;100774.31;4901582;29;20040;-92
2022/05/29 06:09:17;;;;;;;6.78;4.18;;;;;;;18.01;54.55;100776.47;4901893;29;20034;-91
2022/05/29 06:11:42;;;;;;;6.43;4.63;;;;;;;17.98;55.45;100774.06;4902263;29;20036;-93
2022/05/29 06:14:08;;;;;;;7.10;4.38;;;;;;;17.89;54.94;100786.09;4901557;29;20051;-92
2022/05/29 06:16:34;;;;;;;6.20;3.92;;;;;;;17.94;55.95;100802.28;4901672;29;20087;-91
2022/05/29 06:18:59;;;;;;;7.68;4.45;;;;;;;17.90;56.14;100795.63;4903828;29;20039;-92
2022/05/29 06:21:25;;;;;;;7.47;4.63;;;;;;;17.94;56.66;100777.91;4921103;29;20032;-92
2022/05/29 06:23:50;;;;;;;8.30;5.22;;;;;;;17.94;55.97;100773.50;4921176;29;20035;-91
2022/05/29 06:26:16;;;;;;;7.93;4.32;;;;;;;17.99;57.01;100778.34;4921098;29;20107;-93
2022/05/29 06:28:41;;;;;;;11.20;4.43;;;;;;;18.12;57.49;100759.94;4905405;29;20036;-92
2022/05/29 06:31:08;;;;;;;7.43;4.40;;;;;;;18.10;56.19;100757.44;4905279;29;20488;-93
2022/05/29 06:33:34;;;;;;;8.18;4.78;;;;;;;18.31;56.50;100760.16;4920872;29;20028;-90
2022/05/29 06:36:07;;;;;;;11.32;4.90;;;;;;;18.31;60.12;100783.72;4904924;29;20419;-91
2022/05/29 06:38:33;;;;;;;11.90;5.20;;;;;;;18.09;61.27;100775.84;4920811;29;20036;-92
2022/05/29 06:40:59;;;;;;;7.43;5.15;;;;;;;18.15;62.96;100791.09;4920489;29;20020;-91
2022/05/29 06:43:24;;;;;;;9.85;5.50;;;;;;;17.97;63.76;100747.06;4920858;29;20032;-92
2022/05/29 06:45:56;;;;;;;9.25;5.05;;;;;;;17.92;63.10;100732.69;4920410;29;20395;-91
2022/05/29 06:48:21;;;;;;;9.77;5.43;;;;;;;18.12;63.97;100762.56;4936594;29;20082;-91
2022/05/29 06:50:47;;;;;;;10.77;4.97;;;;;;;18.03;64.47;100767.53;4920683;29;20024;-92
2022/05/29 06:53:14;;;;;;;10.07;5.75;;;;;;;17.98;66.39;100768.84;4920021;29;20078;-91
2022/05/29 06:55:39;;;;;;;8.57;5.18;;;;;;;17.88;65.92;100763.47;4920131;29;20508;-92
2022/05/29 06:58:05;;;;;;;8.13;5.15;;;;;;;17.86;65.37;100762.78;4904564;29;20071;-90
2022/05/29 07:08:43;;;;;;;9.43;6.03;;;;;;;17.99;65.35;100765.28;4922433;29;20098;-90
2022/05/29 07:11:15;;;;;;;9.52;5.10;;;;;;;18.05;65.41;100767.41;4919938;29;20035;-90
2022/05/29 07:13:41;;;;;;;7.15;4.70;;;;;;;18.03;64.86;100769.34;4904515;29;20036;-91
2022/05/29 07:16:06;;;;;;;8.45;4.97;;;;;;;17.84;64.37;100746.38;4919766;29;20503;-91
2022/05/29 07:18:32;;;;;;;6.93;4.75;;;;;;;17.90;64.81;100755.53;4919812;29;20504;-90
2022/05/29 07:21:02;;;;;;;12.70;5.32;;;;;;;17.80;65.46;100734.47;4903911;29;20032;-90
2022/05/29 07:23:28;;;;;;;7.80;5.18;;;;;;;17.79;66.59;100738.03;4919835;29;20489;-90
2022/05/29 07:25:54;;;;;;;8.88;4.65;;;;;;;17.89;63.87;100733.75;4919923;29;20481;-92
2022/05/29 07:28:21;;;;;;;9.10;4.82;;;;;;;17.80;66.64;100697.84;4904309;29;20031;-91
2022/05/29 07:30:48;;;;;;;11.20;6.95;;;;;;;17.65;67.53;100702.44;4919473;29;20032;-91
2022/05/29 07:33:14;;;;;;;11.40;5.05;;;;;;;17.65;66.51;100725.16;4936236;29;20066;-92
2022/05/29 07:35:40;;;;;;;13.93;5.53;;;;;;;17.56;67.04;100772.94;4903869;29;20032;-91
2022/05/29 07:38:05;;;;;;;9.95;5.50;;;;;;;17.52;68.18;100758.44;4935333;29;20027;-92
2022/05/29 07:40:31;;;;;;;8.57;5.43;;;;;;;17.47;67.84;100757.00;4903640;29;20433;-91
2022/05/29 07:45:40;;;;;;;10.77;5.88;;;;;;;17.59;69.05;100772.69;4935214;29;20196;-91
2022/05/29 07:48:06;;;;;;;8.82;5.93;;;;;;;17.73;67.74;100778.59;4919057;29;20509;-92
2022/05/29 07:50:31;;;;;;;10.98;5.57;;;;;;;17.88;66.98;100783.59;4903687;29;20028;-91
2022/05/29 07:52:57;;;;;;;8.57;5.40;;;;;;;18.02;64.74;100789.44;4919178;29;20048;-91
2022/05/29 07:55:22;;;;;;;7.75;5.43;;;;;;;18.14;63.22;100784.19;4934845;29;20059;-92
2022/05/29 07:57:48;;;;;;;8.32;5.32;;;;;;;18.28;64.38;100773.47;4919226;29;20040;-92
2022/05/29 08:00:16;;;;;;;8.05;5.47;;;;;;;18.35;64.47;100766.78;4919616;29;20036;-91
2022/05/29 08:02:41;;;;;;;8.43;5.85;;;;;;;18.43;63.89;100769.66;4934763;29;20031;-89
2022/05/29 08:05:08;;;;;;;10.93;5.95;;;;;;;18.49;62.92;100763.94;4903433;29;20425;-91
2022/05/29 08:07:34;;;;;;;8.10;5.70;;;;;;;18.47;62.80;100759.75;4919123;29;20474;-90
2022/05/29 08:09:59;;;;;;;8.13;6.13;;;;;;;18.53;61.70;100754.84;4902884;29;20031;-91
2022/05/29 08:12:25;;;;;;;9.45;5.32;;;;;;;18.73;62.17;100768.19;4918782;29;20039;-92
2022/05/29 08:14:50;;;;;;;9.40;5.15;;;;;;;18.94;61.62;100752.50;4919170;29;20119;-91
2022/05/29 08:17:16;;;;;;;11.65;5.97;;;;;;;18.96;61.79;100759.25;4918697;29;20027;-91
2022/05/29 08:19:41;;;;;;;9.75;6.15;;;;;;;18.98;62.55;100759.16;4903311;29;20039;-91
2022/05/29 08:22:07;;;;;;;9.32;5.63;;;;;;;19.04;61.31;100761.25;4918787;29;20139;-91
2022/05/29 08:33:00;;;;;;;9.15;6.30;;;;;;;19.64;61.83;100773.72;4920845;29;20103;-92
2022/05/29 08:35:26;;;;;;;7.72;6.07;;;;;;;19.74;59.89;100776.38;4902756;29;20067;-91
2022/05/29 08:37:51;;;;;;;9.95;6.05;;;;;;;19.93;59.04;100775.66;4918579;29;20038;-92
2022/05/29 08:40:17;;;;;;;8.52;6.40;;;;;;;19.86;58.76;100775.38;4902655;29;20020;-92
2022/05/29 08:42:42;;;;;;;10.60;6.00;;;;;;;20.14;58.24;100765.09;4902182;29;20409;-91
2022/05/29 08:45:09;;;;;;;10.63;5.97;;;;;;;20.29;58.01;100771.66;4934485;29;20031;-92
2022/05/29 08:47:34;;;;;;;11.73;5.97;;;;;;;20.60;58.02;100762.75;4902758;29;20472;-92
2022/05/29 08:50:00;;;;;;;10.20;6.25;;;;;;;20.73;59.18;100773.00;4918511;29;20036;-91
2022/05/29 08:52:47;;;;;;;8.23;5.75;;;;;;;20.83;56.22;100778.25;4918102;29;20047;-93
2022/05/29 08:55:35;;;;;;;7.53;5.60;;;;;;;21.04;57.38;100768.47;4934130;29;20024;-92
2022/05/29 08:58:24;;;;;;;10.88;6.30;;;;;;;21.22;56.81;100763.31;4918778;29;20032;-92
2022/05/29 09:01:04;;;;;;;9.55;5.88;;;;;;;21.06;56.38;100773.59;4917740;29;20034;-93
2022/05/29 09:03:39;;;;;;;10.63;6.65;;;;;;;21.14;55.76;100765.84;4904281;29;20070;-92
2022/05/29 09:06:16;;;;;;;9.50;5.68;;;;;;;20.90;55.65;100753.91;4933807;29;20035;-90
2022/05/29 09:08:45;;;;;;;10.20;6.10;;;;;;;20.94;56.75;100766.78;4903562;29;20027;-90
2022/05/29 09:11:18;;;;;;;7.78;5.80;;;;;;;20.99;56.28;100736.47;4902452;29;20038;-92
2022/05/29 09:13:48;;;;;;;12.50;5.82;;;;;;;21.41;56.83;100762.47;4902658;29;20035;-91
2022/05/29 09:16:16;;;;;;;12.75;7.05;;;;;;;21.35;55.14;100734.94;4901946;29;20031;-92
2022/05/29 09:18:45;;;;;;;11.35;6.00;;;;;;;21.40;54.75;100753.75;4902307;29;20465;-91
2022/05/29 09:21:17;;;;;;;11.20;5.82;;;;;;;21.55;55.65;100727.81;4918128;29;20034;-93
2022/05/29 09:24:03;;;;;;;10.93;5.70;;;;;;;21.81;53.22;100753.50;4917741;29;20031;-91
2022/05/29 09:26:32;;;;;;;8.20;6.22;;;;;;;21.69;53.13;100745.78;4917632;29;20086;-91
2022/05/29 09:28:58;;;;;;;8.05;4.85;;;;;;;21.58;53.04;100740.69;4917847;29;20031;-91
2022/05/29 09:31:26;;;;;;;6.90;4.95;;;;;;;21.66;52.35;100740.81;4902142;29;20032;-92
2022/05/29 09:33:52;;;;;;;6.65;4.95;;;;;;;21.86;52.18;100738.94;4902632;29;20032;-92
2022/05/29 09:36:52;;;;;;;7.35;4.50;;;;;;;22.10;52.31;100738.44;4902181;29;20028;-93
2022/05/29 09:39:40;;;;;;;6.78;5.00;;;;;;;22.25;50.39;100741.41;4920385;29;20524;-91
2022/05/29 09:42:36;;;;;;;7.32;5.63;;;;;;;22.23;51.53;100730.19;4918155;29;20565;-92
2022/05/29 09:45:30;;;;;;;10.02;5.90;;;;;;;22.24;50.78;100723.94;4919392;29;20032;-92
2022/05/29 09:50:57;;;;;;;9.52;5.97;;;;;;;22.12;51.45;100735.63;4919653;29;20042;-94
2022/05/29 09:53:25;;;;;;;9.55;5.93;;;;;;;21.89;52.03;100724.63;4924097;29;20059;-90
2022/05/29 09:55:54;;;;;;;9.20;5.72;;;;;;;21.99;52.69;100730.69;4924195;29;20043;-93
2022/05/29 09:58:23;;;;;;;6.50;3.88;;;;;;;22.23;50.22;100723.13;4923894;29;20031;-91
2022/05/29 10:01:01;;;;;;;8.23;3.80;;;;;;;22.46;48.44;100728.78;4924013;29;20028;-92
2022/05/29 10:03:39;;;;;;;6.88;3.97;;;;;;;22.40;48.48;100724.09;4924184;29;20034;-93
2022/05/29 10:06:37;;;;;;;6.85;3.78;;;;;;;22.73;48.99;100714.72;4941174;29;20028;-91
2022/05/29 10:09:16;;;;;;;4.88;3.70;;;;;;;22.80;49.04;100720.19;4909547;29;20039;-91
2022/05/29 10:11:46;;;;;;;7.38;3.95;;;;;;;22.97;49.01;100716.75;4940683;29;20548;-92
2022/05/29 10:14:18;;;;;;;6.05;3.50;;;;;;;23.02;46.87;100706.56;4908365;29;20023;-93
2022/05/29 10:16:44;;;;;;;5.68;3.90;;;;;;;22.96;48.28;100703.72;4955454;28;20087;-92
2022/05/29 10:19:11;;;;;;;6.43;4.25;;;;;;;22.74;48.12;100705.81;4907903;29;20449;-92
2022/05/29 10:21:45;;;;;;;7.90;4.70;;;;;;;22.54;49.72;100701.69;4907936;29;20031;-91
2022/05/29 10:24:21;;;;;;;5.90;4.40;;;;;;;22.66;49.12;100712.81;4908121;29;20031;-91
2022/05/29 10:26:51;;;;;;;7.55;4.10;;;;;;;22.78;49.11;100701.06;4923323;29;20035;-94
2022/05/29 10:29:22;;;;;;;11.40;3.58;;;;;;;22.67;47.09;100682.84;4924188;29;20098;-94
2022/05/29 10:31:48;;;;;;;6.32;3.45;;;;;;;22.74;48.40;100690.00;4908358;29;20493;-91
2022/05/29 10:34:25;;;;;;;6.32;3.55;;;;;;;22.86;48.61;100687.97;4923775;29;20083;-91
2022/05/29 10:36:51;;;;;;;5.32;3.80;;;;;;;22.78;48.55;100656.22;4924930;29;20067;-91
2022/05/29 10:39:24;;;;;;;5.70;3.58;;;;;;;23.01;49.08;100675.91;4923346;29;20043;-91
2022/05/29 10:41:51;;;;;;;5.47;3.97;;;;;;;23.02;49.05;100672.28;4923155;29;20032;-92
2022/05/29 10:44:42;;;;;;;5.70;3.88;;;;;;;23.05;48.24;100669.31;4923397;29;20444;-92
2022/05/29 10:47:16;;;;;;;6.82;3.95;;;;;;;23.18;47.71;100668.91;4939371;29;20536;-92
2022/05/29 10:49:51;;;;;;;10.13;4.00;;;;;;;23.09;48.26;100667.19;4939027;29;20035;-92
2022/05/29 10:52:24;;;;;;;8.02;3.95;;;;;;;23.14;48.70;100665.75;4939131;29;20402;-92
2022/05/29 10:55:17;;;;;;;5.47;4.07;;;;;;;23.12;48.13;100661.63;4939053;29;20031;-93
2022/05/29 10:58:10;;;;;;;10.48;4.25;;;;;;;22.77;47.82;100651.94;4938693;29;20099;-91
2022/05/29 11:00:44;;;;;;;8.55;4.07;;;;;;;22.49;49.13;100627.47;4925863;29;20051;-91
2022/05/29 11:03:18;;;;;;;8.50;4.50;;;;;;;22.85;49.73;100654.66;4938827;29;20401;-92
2022/05/29 11:06:20;;;;;;;7.28;4.50;;;;;;;22.92;48.74;100639.91;4935332;29;20028;-91
2022/05/29 11:08:52;;;;;;;5.93;4.05;;;;;;;22.72;47.95;100619.94;4935948;29;20035;-91
2022/05/29 11:11:32;;;;;;;7.97;4.50;;;;;;;22.86;48.86;100636.03;4951529;29;20123;-92
2022/05/29 11:14:13;;;;;;;7.22;4.40;;;;;;;22.70;48.62;100622.69;4936008;29;20036;-93
2022/05/29 11:16:51;;;;;;;6.28;4.55;;;;;;;22.56;49.80;100603.00;4935815;29;20078;-91
2022/05/29 11:19:35;;;;;;;7.85;4.70;;;;;;;22.71;49.74;100618.25;4920854;29;20083;-92
2022/05/29 11:22:27;;;;;;;13.18;4.50;;;;;;;22.70;49.91;100608.69;4936711;29;20516;-93
2022/05/29 11:25:20;;;;;;;6.18;4.65;;;;;;;22.60;49.76;100606.16;4919677;29;20034;-92
2022/05/29 11:28:13;;;;;;;9.73;5.18;;;;;;;22.56;50.59;100613.53;4951579;29;20036;-91
2022/05/29 11:31:06;;;;;;;10.32;5.05;;;;;;;22.52;50.99;100606.09;4935416;29;20066;-91
2022/05/29 11:33:41;;;;;;;6.85;5.65;;;;;;;22.61;51.74;100605.16;4935750;29;20046;-91
2022/05/29 11:36:29;;;;;;;6.07;5.00;;;;;;;22.50;50.90;100598.31;4935375;29;20039;-92
2022/05/29 11:39:05;;;;;;;6.93;5.03;;;;;;;22.53;51.23;100597.22;4935469;29;20024;-91
2022/05/29 11:41:59;;;;;;;6.53;5.25;;;;;;;22.49;52.26;100596.66;4935297;29;20035;-93
2022/05/29 11:44:33;;;;;;;8.90;5.45;;;;;;;22.39;53.30;100589.84;4911265;29;20055;-91
2022/05/29 11:52:46;;;;;;;9.48;5.88;;;;;;;22.13;54.58;100584.50;4921877;29;20128;-92
2022/05/29 11:55:35;;;;;;;10.30;6.38;;;;;;;22.12;55.14;100588.09;4936119;29;20118;-91
2022/05/29 11:58:16;;;;;;;9.85;6.32;;;;;;;21.97;54.96;100588.59;4935113;29;20027;-92
2022/05/29 12:01:02;;;;;;;8.27;5.97;;;;;;;21.58;55.86;100545.06;4919241;29;20040;-93
2022/05/29 12:03:46;;;;;;;7.40;6.15;;;;;;;21.75;56.03;100583.78;4905609;29;20024;-93
2022/05/29 12:06:30;;;;;;;9.13;6.00;;;;;;;21.86;56.17;100582.72;4935882;29;20031;-91
2022/05/29 12:09:23;;;;;;;8.18;6.30;;;;;;;21.76;56.44;100585.44;4918919;29;20031;-92
2022/05/29 12:11:59;;;;;;;10.18;7.32;;;;;;;21.63;56.01;100583.16;4931469;29;20047;-94
2022/05/29 12:14:25;;;;;;;13.10;8.32;;;;;;;21.57;56.04;100577.63;4920371;29;20159;-93